Benchland, Montana
Current Conditions -  °F | °C
As of 4:54 AM on Friday 31 Oct 2014 (Local Time) from KLWT Reporting Station
Clear Clear  
Wind Chill: 39°   Ceiling: Unl
Heat Index: 45°   Visibility: 10mi
Dew Point: 30°   Wind: 12mph
Humidity: 56%   Direction: 120°ESE
Pressure: 29.97"   Gusts: NA
Location:  47.1096°N, 109.884°W
Report Text: KLWT 311054Z AUTO 12010KT 10SM CLR 07/M01 A2997 RMK AO2 SLP143 T00721011
Loading
Personal Weather Stations






























Interactive Weather Map
Tropical Storm Tracking
New forecast layout! Learn more

10-Day Weather Forecast

Advertisements
Track Severe Weather on mobile